Time;durP1;ratioP1;P1;durP2;ratioP2;P2;SDS_P1;SDS_P2;PMS_P1;PMS_P2;Temp;Humidity;BMP_temperature;BMP_pressure;BME280_temperature;BME280_humidity;BME280_pressure;Samples;Min_cycle;Max_cycle;Signal;HPM_P1;HPM_P2
2022/03/14 00:00:29;;;;;;;21.77;9.43;;;;;;;-1.13;41.26;101108.25;4470343;32;35470;-74
2022/03/14 00:03:16;;;;;;;21.95;8.70;;;;;;;-0.36;40.00;101096.34;4469389;32;35128;-73
2022/03/14 00:06:02;;;;;;;20.65;9.43;;;;;;;-0.25;39.71;101106.53;4469279;32;35592;-73
2022/03/14 00:08:50;;;;;;;23.92;9.18;;;;;;;-0.83;41.06;101113.38;4469548;32;35090;-74
2022/03/14 00:11:37;;;;;;;33.03;10.82;;;;;;;-0.95;41.44;101110.41;4468832;32;34617;-74
2022/03/14 00:14:25;;;;;;;49.08;15.40;;;;;;;-0.93;41.49;101117.25;4469354;32;35142;-73
2022/03/14 00:17:13;;;;;;;39.58;13.30;;;;;;;-1.20;41.86;101124.34;4469423;32;34715;-73
2022/03/14 00:20:02;;;;;;;21.00;9.75;;;;;;;-0.93;41.97;101122.63;4469330;32;35904;-74
2022/03/14 00:22:49;;;;;;;24.75;9.55;;;;;;;-1.48;43.14;101120.81;4476496;32;34596;-75
2022/03/14 00:25:36;;;;;;;24.12;9.20;;;;;;;-0.56;41.50;101115.16;4482661;32;34796;-76
2022/03/14 00:28:23;;;;;;;26.23;10.25;;;;;;;-0.26;40.66;101118.37;4481809;32;35512;-76
2022/03/14 00:31:11;;;;;;;24.50;10.02;;;;;;;-0.50;41.12;101118.91;4475390;32;34984;-75
2022/03/14 00:33:58;;;;;;;25.08;10.43;;;;;;;-0.13;40.43;101122.09;4481934;32;35783;-76
2022/03/14 00:36:45;;;;;;;29.90;10.02;;;;;;;-0.06;40.29;101117.56;4482155;32;35171;-76
2022/03/14 00:39:31;;;;;;;31.85;13.82;;;;;;;-0.03;40.11;101122.53;4473793;32;34578;-75
2022/03/14 00:42:20;;;;;;;25.05;10.25;;;;;;;-0.78;42.59;101132.44;4481318;32;36018;-76
2022/03/14 00:45:08;;;;;;;26.40;10.70;;;;;;;-0.97;43.10;101126.78;4471994;32;34656;-76
2022/03/14 00:47:54;;;;;;;24.80;10.43;;;;;;;-0.87;42.86;101125.56;4471600;32;34131;-76
2022/03/14 00:50:40;;;;;;;23.98;10.48;;;;;;;-0.85;42.54;101126.19;4476594;32;35339;-76
2022/03/14 00:53:27;;;;;;;23.12;10.52;;;;;;;-0.39;41.24;101121.00;4474951;32;34947;-76
2022/03/14 00:56:13;;;;;;;20.85;9.60;;;;;;;-0.39;41.11;101121.00;4478066;32;34605;-76
2022/03/14 00:59:00;;;;;;;24.60;11.15;;;;;;;-0.70;41.54;101119.66;4483432;32;34221;-76
2022/03/14 01:01:47;;;;;;;26.17;11.12;;;;;;;-0.67;41.42;101123.78;4483734;32;35564;-76
2022/03/14 01:04:33;;;;;;;25.65;11.48;;;;;;;-0.55;41.63;101126.75;4472954;32;34881;-76
2022/03/14 01:07:20;;;;;;;27.27;11.80;;;;;;;-0.67;41.85;101123.78;4472448;32;36045;-75
2022/03/14 01:10:07;;;;;;;29.75;11.07;;;;;;;-0.60;41.95;101124.63;4471237;32;34258;-75
2022/03/14 01:12:54;;;;;;;26.37;10.82;;;;;;;-0.61;42.33;101125.69;4482557;32;35301;-75
2022/03/14 01:15:40;;;;;;;32.78;14.32;;;;;;;-0.25;41.72;101135.34;4481894;32;35043;-75
2022/03/14 01:18:26;;;;;;;31.35;13.27;;;;;;;-0.64;42.60;101134.16;4480724;32;34157;-75
2022/03/14 01:21:12;;;;;;;33.08;14.25;;;;;;;-0.64;42.52;101141.41;4481026;32;34179;-76
2022/03/14 01:23:59;;;;;;;37.08;15.73;;;;;;;-0.96;43.64;101141.87;4483084;32;35046;-76
2022/03/14 01:26:45;;;;;;;38.00;16.08;;;;;;;-0.81;43.54;101139.06;4477720;32;35545;-76
2022/03/14 01:29:34;;;;;;;52.03;20.37;;;;;;;-0.47;43.14;101143.56;4464190;32;34638;-76
2022/03/14 01:32:20;;;;;;;47.70;20.10;;;;;;;-0.42;42.88;101142.13;4482976;32;33928;-76
2022/03/14 01:35:07;;;;;;;50.45;18.35;;;;;;;-0.17;42.76;101147.78;4483234;32;34339;-75
2022/03/14 01:37:54;;;;;;;43.50;17.85;;;;;;;-0.35;42.87;101134.87;4484153;32;34924;-76
2022/03/14 01:40:41;;;;;;;44.40;18.30;;;;;;;-1.45;44.83;101136.56;4482060;32;35440;-76
2022/03/14 01:43:27;;;;;;;41.67;17.85;;;;;;;-0.89;43.77;101146.47;4477430;32;35138;-75
2022/03/14 01:46:16;;;;;;;40.95;16.67;;;;;;;-0.72;43.49;101153.16;4482317;32;34720;-76
2022/03/14 01:49:03;;;;;;;43.47;18.65;;;;;;;-0.54;42.84;101145.41;4474338;32;34914;-76
2022/03/14 01:51:54;;;;;;;37.80;16.98;;;;;;;-0.54;43.07;101150.78;4479056;32;34194;-76
2022/03/14 01:54:41;;;;;;;44.15;17.90;;;;;;;-0.98;44.19;101153.84;4483128;32;33754;-76
2022/03/14 01:57:30;;;;;;;35.33;16.33;;;;;;;-0.53;43.35;101157.81;4475806;32;35324;-76
2022/03/14 02:00:16;;;;;;;38.05;16.80;;;;;;;-1.01;44.26;101152.41;4476129;32;35001;-76
2022/03/14 02:03:02;;;;;;;37.72;15.23;;;;;;;-0.66;44.00;101165.81;4473438;32;35385;-76
2022/03/14 02:05:49;;;;;;;33.38;14.25;;;;;;;-0.45;43.21;101156.81;4483045;32;35182;-76
2022/03/14 02:08:35;;;;;;;28.70;12.52;;;;;;;-0.84;43.55;101165.53;4483231;32;33480;-76
2022/03/14 02:11:21;;;;;;;30.75;15.60;;;;;;;-0.84;43.36;101171.75;4482570;32;35082;-76
2022/03/14 02:14:08;;;;;;;35.80;15.90;;;;;;;-1.20;44.54;101167.38;4483432;32;34644;-75
2022/03/14 02:16:54;;;;;;;36.08;16.23;;;;;;;-1.23;44.99;101175.00;4476457;32;35077;-75
2022/03/14 02:19:41;;;;;;;32.55;15.02;;;;;;;-1.42;45.56;101174.66;4475965;32;36978;-76
2022/03/14 02:22:27;;;;;;;36.83;16.33;;;;;;;-0.86;44.52;101179.19;4472990;32;34949;-75
2022/03/14 02:25:14;;;;;;;36.95;15.82;;;;;;;-1.25;44.78;101185.97;4482264;32;34670;-75
2022/03/14 02:28:01;;;;;;;33.10;15.90;;;;;;;-1.02;44.54;101184.88;4473127;32;35178;-76
2022/03/14 02:30:48;;;;;;;34.38;15.35;;;;;;;-1.92;46.79;101184.53;4475731;32;34345;-76
2022/03/14 02:33:34;;;;;;;38.33;16.98;;;;;;;-1.59;46.67;101186.72;4476015;32;35929;-76
2022/03/14 02:36:21;;;;;;;40.20;18.42;;;;;;;-1.19;45.63;101182.50;4475378;32;34601;-75
2022/03/14 02:39:07;;;;;;;38.40;18.42;;;;;;;-0.94;44.91;101177.50;4477718;32;33957;-75
2022/03/14 02:41:54;;;;;;;37.92;18.83;;;;;;;-1.53;46.46;101187.81;4477767;32;35480;-76
2022/03/14 02:44:43;;;;;;;40.90;19.65;;;;;;;-1.68;46.55;101186.03;4483237;32;33908;-75
2022/03/14 02:47:29;;;;;;;37.55;19.30;;;;;;;-1.17;45.35;101184.97;4475107;32;35346;-76
2022/03/14 02:50:15;;;;;;;39.85;18.12;;;;;;;-1.01;44.84;101182.00;4478416;32;34946;-75
2022/03/14 02:53:06;;;;;;;35.95;16.60;;;;;;;-0.81;44.62;101186.66;4482092;32;34621;-75
2022/03/14 02:55:53;;;;;;;41.25;17.80;;;;;;;-1.05;44.42;101191.50;4477266;32;33959;-76
2022/03/14 02:58:39;;;;;;;39.08;19.15;;;;;;;-1.02;44.74;101190.28;4476646;32;34119;-76
2022/03/14 03:01:25;;;;;;;38.95;17.60;;;;;;;-0.89;44.70;101186.81;4473535;32;34945;-76
2022/03/14 03:04:12;;;;;;;43.67;18.98;;;;;;;-2.05;47.47;101195.12;4472569;32;34582;-76
2022/03/14 03:06:59;;;;;;;42.78;19.40;;;;;;;-2.11;47.91;101201.25;4475931;32;34908;-75
2022/03/14 03:09:46;;;;;;;43.03;19.95;;;;;;;-1.32;46.36;101209.28;4474047;32;36222;-75
2022/03/14 03:12:32;;;;;;;44.05;20.48;;;;;;;-1.41;46.76;101216.66;4477417;32;34203;-76
2022/03/14 03:15:19;;;;;;;42.25;19.90;;;;;;;-1.52;46.90;101211.78;4482033;32;35390;-76
2022/03/14 03:18:06;;;;;;;47.08;21.90;;;;;;;-1.24;46.66;101216.37;4476657;32;34917;-76
2022/03/14 03:20:53;;;;;;;51.97;23.60;;;;;;;-1.02;45.97;101227.94;4478680;32;34539;-76
2022/03/14 03:23:40;;;;;;;52.55;25.55;;;;;;;-1.31;46.43;101223.53;4474711;32;36916;-76
2022/03/14 03:26:26;;;;;;;48.33;23.30;;;;;;;-1.23;46.51;101223.41;4483348;32;34631;-75
2022/03/14 03:29:12;;;;;;;49.97;23.90;;;;;;;-1.57;47.57;101224.97;4477147;32;34999;-75
2022/03/14 03:31:59;;;;;;;47.78;21.55;;;;;;;-1.32;46.86;101236.16;4483625;32;34267;-75
2022/03/14 03:34:45;;;;;;;44.00;20.30;;;;;;;-1.16;46.83;101233.22;4483794;32;34171;-76
2022/03/14 03:37:31;;;;;;;39.55;19.00;;;;;;;-1.33;47.04;101228.31;4483513;32;33589;-76
2022/03/14 03:40:18;;;;;;;42.10;20.27;;;;;;;-1.08;46.48;101234.94;4481560;32;35867;-75
2022/03/14 03:43:08;;;;;;;42.00;19.15;;;;;;;-1.00;46.38;101233.94;4474987;32;34604;-76
2022/03/14 03:45:54;;;;;;;46.00;19.50;;;;;;;-0.99;46.09;101232.94;4481600;32;34180;-75
2022/03/14 03:48:40;;;;;;;41.63;20.00;;;;;;;-1.14;45.87;101235.69;4475085;32;35272;-76
2022/03/14 03:51:27;;;;;;;34.45;16.52;;;;;;;-1.27;46.39;101239.12;4474138;32;34792;-75
2022/03/14 03:54:13;;;;;;;36.53;16.70;;;;;;;-1.05;45.79;101237.22;4475187;32;34575;-76
2022/03/14 03:56:59;;;;;;;38.83;17.33;;;;;;;-0.92;45.23;101237.31;4483262;32;33823;-75
2022/03/14 03:59:45;;;;;;;35.60;16.35;;;;;;;-0.99;45.26;101243.69;4483723;32;34707;-76
2022/03/14 04:02:38;;;;;;;46.95;21.12;;;;;;;-1.02;45.29;101236.84;4483835;32;36011;-76
2022/03/14 04:05:25;;;;;;;53.42;22.33;;;;;;;-1.36;46.23;101237.59;4473174;32;35455;-75
2022/03/14 04:08:11;;;;;;;59.42;24.60;;;;;;;-1.58;47.17;101234.91;4476684;32;34286;-76
2022/03/14 04:10:58;;;;;;;51.75;22.25;;;;;;;-1.73;47.82;101230.63;4483842;32;34729;-75
2022/03/14 04:13:45;;;;;;;64.70;26.60;;;;;;;-1.74;48.22;101226.25;4478909;32;35968;-75
2022/03/14 04:16:32;;;;;;;53.67;23.73;;;;;;;-1.59;47.62;101233.25;4463398;32;35373;-75
2022/03/14 04:19:20;;;;;;;63.85;24.27;;;;;;;-1.62;47.99;101228.25;4485314;32;34098;-75
2022/03/14 04:22:07;;;;;;;62.05;26.55;;;;;;;-1.98;48.49;101235.50;4484989;32;34659;-76
2022/03/14 04:24:53;;;;;;;64.37;25.55;;;;;;;-1.90;48.52;101240.78;4466149;32;36005;-76
2022/03/14 04:27:44;;;;;;;50.58;21.83;;;;;;;-2.31;49.76;101244.81;4484167;32;34655;-75
2022/03/14 04:30:30;;;;;;;60.65;23.00;;;;;;;-2.73;51.09;101249.00;4484269;32;34134;-75
2022/03/14 04:33:17;;;;;;;56.72;23.73;;;;;;;-2.01;49.27;101244.78;4479946;32;34688;-76
2022/03/14 04:36:04;;;;;;;72.55;28.23;;;;;;;-2.04;49.65;101248.66;4473192;32;34938;-76
2022/03/14 04:38:51;;;;;;;64.55;27.95;;;;;;;-2.23;49.81;101260.00;4482279;32;34625;-75
2022/03/14 04:41:38;;;;;;;70.95;29.20;;;;;;;-2.41;50.40;101260.37;4475306;32;34369;-75
2022/03/14 04:44:25;;;;;;;67.85;28.40;;;;;;;-1.75;48.66;101254.97;4483772;32;34735;-76
2022/03/14 04:47:11;;;;;;;59.47;25.30;;;;;;;-1.82;48.78;101260.28;4479296;32;33667;-76
2022/03/14 04:49:57;;;;;;;63.17;25.15;;;;;;;-1.69;48.55;101269.50;4483406;32;35547;-75
2022/03/14 04:52:45;;;;;;;56.63;24.85;;;;;;;-1.95;48.79;101276.25;4472580;32;34222;-75
2022/03/14 04:55:31;;;;;;;51.30;23.12;;;;;;;-1.54;48.17;101272.16;4474967;32;34524;-75
2022/03/14 04:58:17;;;;;;;43.97;20.10;;;;;;;-1.52;47.68;101270.94;4482870;32;34974;-75
2022/03/14 05:01:04;;;;;;;44.15;20.20;;;;;;;-1.44;47.61;101273.50;4482763;32;35520;-76
2022/03/14 05:03:52;;;;;;;52.10;20.73;;;;;;;-1.45;47.16;101282.59;4484988;32;34237;-75
2022/03/14 05:06:39;;;;;;;48.20;21.15;;;;;;;-1.63;47.80;101277.63;4470529;32;34696;-75
2022/03/14 05:09:25;;;;;;;56.80;24.65;;;;;;;-1.60;47.96;101288.00;4481943;32;35990;-76
2022/03/14 05:12:11;;;;;;;67.45;25.62;;;;;;;-1.81;48.17;101286.12;4483080;32;34645;-75
2022/03/14 05:14:58;;;;;;;55.10;24.80;;;;;;;-2.28;49.49;101282.06;4482349;32;35169;-75
2022/03/14 05:17:46;;;;;;;58.95;25.40;;;;;;;-2.00;49.42;101289.41;4478158;32;35521;-75
2022/03/14 05:20:35;;;;;;;57.50;23.55;;;;;;;-2.23;50.33;101286.03;4482401;32;34688;-76
2022/03/14 05:23:23;;;;;;;51.40;22.50;;;;;;;-1.99;49.89;101300.97;4482554;32;34657;-76
2022/03/14 05:26:10;;;;;;;49.03;22.90;;;;;;;-1.82;49.24;101287.16;4482332;32;33896;-75
2022/03/14 05:28:57;;;;;;;49.42;22.52;;;;;;;-2.71;51.14;101287.19;4483149;32;35567;-75
2022/03/14 05:31:44;;;;;;;49.08;22.70;;;;;;;-2.39;51.32;101295.94;4483650;32;34986;-75
2022/03/14 05:34:30;;;;;;;46.78;21.12;;;;;;;-2.11;50.34;101297.94;4483143;32;34624;-75
2022/03/14 05:37:17;;;;;;;49.00;21.30;;;;;;;-1.86;49.77;101301.16;4474949;32;34127;-75
2022/03/14 05:40:05;;;;;;;52.62;23.08;;;;;;;-2.08;50.41;101305.63;4480853;32;34726;-75
2022/03/14 05:42:51;;;;;;;49.30;22.83;;;;;;;-2.76;52.10;101310.22;4482204;32;36123;-75
2022/03/14 05:45:37;;;;;;;57.20;25.67;;;;;;;-2.75;52.90;101317.28;4481954;32;34550;-75
2022/03/14 05:48:23;;;;;;;51.70;23.73;;;;;;;-2.30;51.66;101321.66;4475347;32;34031;-76
2022/03/14 05:51:10;;;;;;;54.33;24.65;;;;;;;-3.74;56.42;101333.25;4466233;32;34614;-75
2022/03/14 05:53:56;;;;;;;56.20;22.60;;;;;;;-2.80;54.42;101331.22;4474408;32;34892;-75
2022/03/14 05:56:45;;;;;;;51.08;22.02;;;;;;;-2.63;52.99;101331.09;4481325;32;34631;-75
2022/03/14 05:59:31;;;;;;;48.42;22.75;;;;;;;-2.27;52.30;101337.41;4481209;32;35065;-75
2022/03/14 06:02:22;;;;;;;47.67;22.10;;;;;;;-2.51;52.87;101338.50;4476299;32;34729;-75
2022/03/14 06:05:09;;;;;;;49.60;21.23;;;;;;;-2.24;51.83;101348.81;4476805;32;34994;-75
2022/03/14 06:07:55;;;;;;;44.17;19.80;;;;;;;-2.12;51.55;101350.00;4480699;32;34184;-74
2022/03/14 06:10:45;;;;;;;43.10;19.70;;;;;;;-1.82;50.45;101348.97;4473548;32;34103;-75
2022/03/14 06:13:31;;;;;;;47.60;20.58;;;;;;;-1.72;49.66;101356.72;4478905;32;34715;-76
2022/03/14 06:16:18;;;;;;;44.38;18.05;;;;;;;-2.62;52.96;101354.22;4466189;32;35676;-76
2022/03/14 06:19:04;;;;;;;35.55;15.02;;;;;;;-3.13;54.22;101353.97;4475171;32;34384;-74
2022/03/14 06:21:52;;;;;;;31.98;15.00;;;;;;;-1.98;51.24;101367.97;4484634;32;34279;-75
2022/03/14 06:24:38;;;;;;;34.13;14.77;;;;;;;-2.29;52.28;101379.72;4486218;32;35536;-76
2022/03/14 06:27:24;;;;;;;28.33;13.68;;;;;;;-2.60;52.76;101368.28;4485740;32;34943;-76
2022/03/14 06:30:12;;;;;;;30.15;13.65;;;;;;;-2.33;52.49;101369.53;4480891;32;34162;-76
2022/03/14 06:32:59;;;;;;;26.52;13.55;;;;;;;-2.27;50.80;101377.69;4479537;32;34238;-75
2022/03/14 06:35:46;;;;;;;30.67;14.60;;;;;;;-1.48;49.83;101374.41;4485949;32;34701;-76
2022/03/14 06:38:34;;;;;;;28.38;14.30;;;;;;;-1.92;51.60;101372.59;4485373;32;35980;-76
2022/03/14 06:41:20;;;;;;;32.63;12.98;;;;;;;-1.28;50.14;101380.00;4480803;32;34493;-76
2022/03/14 06:44:07;;;;;;;27.33;12.73;;;;;;;-0.76;48.59;101378.00;4485374;32;35198;-76
2022/03/14 06:46:54;;;;;;;25.52;12.95;;;;;;;-0.31;47.08;101375.87;4485111;32;35728;-76
2022/03/14 06:49:42;;;;;;;24.92;12.07;;;;;;;-0.15;44.86;101372.84;4485025;32;34519;-75
2022/03/14 06:52:28;;;;;;;26.45;12.63;;;;;;;0.34;42.89;101371.91;4479568;32;34487;-76
2022/03/14 06:55:15;;;;;;;25.30;12.75;;;;;;;0.48;41.92;101374.62;4484428;32;34114;-76
2022/03/14 06:58:01;;;;;;;24.92;12.20;;;;;;;0.71;41.77;101388.59;4477255;32;34518;-76
2022/03/14 07:00:48;;;;;;;27.55;13.18;;;;;;;0.98;40.52;101380.59;4484128;32;35058;-75
2022/03/14 07:03:35;;;;;;;26.52;13.73;;;;;;;1.57;39.48;101379.78;4484941;32;35434;-76
2022/03/14 07:06:21;;;;;;;24.12;13.45;;;;;;;1.53;39.90;101379.34;4471544;32;34171;-76
2022/03/14 07:09:09;;;;;;;26.37;13.55;;;;;;;1.74;39.40;101383.72;4485399;32;33532;-75
2022/03/14 07:11:55;;;;;;;27.85;12.45;;;;;;;2.09;38.51;101388.03;4485291;32;34943;-76
2022/03/14 07:14:41;;;;;;;27.52;13.48;;;;;;;2.48;37.95;101389.78;4484918;32;34521;-76
2022/03/14 07:17:28;;;;;;;25.20;12.82;;;;;;;2.72;37.45;101387.38;4478813;32;34230;-75
2022/03/14 07:20:14;;;;;;;27.73;14.10;;;;;;;2.81;36.88;101376.06;4485645;32;35747;-75
2022/03/14 07:23:01;;;;;;;25.05;12.60;;;;;;;2.97;36.11;101377.44;4477982;32;35212;-75
2022/03/14 07:25:49;;;;;;;23.20;12.98;;;;;;;3.41;35.88;101378.34;4475436;32;34617;-75
2022/03/14 07:28:35;;;;;;;23.27;12.70;;;;;;;3.40;36.14;101379.41;4486320;32;35204;-75
2022/03/14 07:31:25;;;;;;;21.83;11.95;;;;;;;3.42;35.73;101382.75;4486156;32;34633;-75
2022/03/14 07:34:12;;;;;;;23.23;12.70;;;;;;;3.83;34.76;101384.84;4474138;32;34907;-75
2022/03/14 07:36:59;;;;;;;28.70;12.68;;;;;;;4.33;34.47;101389.34;4486125;32;35478;-76
2022/03/14 07:39:45;;;;;;;21.48;11.15;;;;;;;4.61;33.93;101380.66;4474300;32;34281;-76
2022/03/14 07:42:31;;;;;;;25.08;12.32;;;;;;;4.89;33.26;101387.38;4479885;32;34702;-76
2022/03/14 07:45:21;;;;;;;24.23;13.25;;;;;;;5.07;32.74;101384.62;4486369;32;35956;-76
2022/03/14 07:48:08;;;;;;;26.37;12.95;;;;;;;5.14;32.40;101389.94;4485202;32;35449;-75
2022/03/14 07:50:54;;;;;;;19.33;10.57;;;;;;;5.20;32.19;101380.84;4485292;32;34214;-76
2022/03/14 07:53:40;;;;;;;17.02;9.00;;;;;;;5.60;30.98;101382.94;4485241;32;34544;-76
2022/03/14 07:56:27;;;;;;;16.70;8.93;;;;;;;5.79;30.25;101379.03;4485087;32;35988;-76
2022/03/14 07:59:14;;;;;;;18.52;9.52;;;;;;;6.10;28.75;101387.13;4486055;32;34552;-76
2022/03/14 08:02:00;;;;;;;14.43;7.95;;;;;;;6.40;28.23;101392.38;4469512;32;34393;-76
2022/03/14 08:04:47;;;;;;;15.32;8.60;;;;;;;6.30;28.28;101399.25;4470283;32;34693;-76
2022/03/14 08:07:34;;;;;;;18.08;8.13;;;;;;;6.35;28.22;101395.81;4476243;32;35961;-75
2022/03/14 08:10:21;;;;;;;16.10;8.27;;;;;;;6.44;27.26;101399.00;4466979;32;34534;-75
2022/03/14 08:13:07;;;;;;;16.15;7.57;;;;;;;6.83;27.85;101401.94;4475420;31;33916;-76
2022/03/14 08:15:54;;;;;;;16.95;8.68;;;;;;;7.11;26.85;101399.22;4479346;32;35477;-76
2022/03/14 08:18:40;;;;;;;20.42;9.70;;;;;;;7.06;26.65;101401.88;4480776;32;35656;-77
2022/03/14 08:21:27;;;;;;;17.27;8.32;;;;;;;7.37;26.55;101394.19;4484404;31;34608;-78
2022/03/14 08:24:14;;;;;;;15.70;7.68;;;;;;;7.59;26.02;101406.03;4484140;32;34322;-77
2022/03/14 08:27:01;;;;;;;18.08;9.00;;;;;;;7.20;26.13;101407.84;4474748;32;34629;-77
2022/03/14 08:29:47;;;;;;;15.70;8.52;;;;;;;7.70;26.23;101400.75;4474629;32;34925;-77
2022/03/14 08:32:35;;;;;;;13.68;7.72;;;;;;;7.81;25.91;101413.50;4474011;32;35470;-77
2022/03/14 08:35:21;;;;;;;15.10;8.48;;;;;;;7.97;25.32;101403.63;4477345;32;34958;-77
2022/03/14 08:38:07;;;;;;;13.95;7.85;;;;;;;7.99;25.10;101405.00;4466446;32;35269;-76
2022/03/14 08:40:54;;;;;;;18.33;7.97;;;;;;;7.55;25.48;101413.06;4484233;32;35986;-77
2022/03/14 08:43:40;;;;;;;13.93;7.35;;;;;;;7.91;24.98;101401.88;4484037;32;34066;-76
2022/03/14 08:46:32;;;;;;;;;;;;;;;7.78;24.95;101408.53;4485815;31;34176;-76
2022/03/14 08:49:18;;;;;;;13.25;7.90;;;;;;;7.97;25.42;101404.47;4464522;32;34865;-78
2022/03/14 08:52:05;;;;;;;14.50;8.18;;;;;;;8.33;25.19;101410.41;4481487;31;36012;-77
2022/03/14 08:54:51;;;;;;;15.95;8.05;;;;;;;8.67;24.86;101418.53;4484023;32;34565;-77
2022/03/14 08:57:41;;;;;;;15.05;7.07;;;;;;;8.83;24.94;101412.16;4474937;32;34068;-76
2022/03/14 09:00:29;;;;;;;17.83;7.95;;;;;;;8.99;25.18;101405.78;4476211;32;34592;-77
2022/03/14 09:03:15;;;;;;;16.85;7.53;;;;;;;8.98;23.97;101412.31;4480473;32;35913;-77
2022/03/14 09:06:01;;;;;;;14.68;7.50;;;;;;;9.45;23.55;101408.16;4479113;31;34560;-76
2022/03/14 09:08:47;;;;;;;13.00;7.07;;;;;;;9.56;24.14;101409.03;4478720;32;33832;-77
2022/03/14 09:11:34;;;;;;;12.80;7.70;;;;;;;9.81;23.09;101413.91;4468947;32;34770;-78
2022/03/14 09:14:20;;;;;;;13.95;6.40;;;;;;;10.29;22.98;101415.59;4480091;32;34594;-78
2022/03/14 09:17:07;;;;;;;12.48;6.03;;;;;;;10.24;22.51;101407.31;4480506;32;33613;-79
2022/03/14 09:19:54;;;;;;;11.12;5.22;;;;;;;10.31;22.62;101407.94;4478718;32;34212;-79
2022/03/14 09:22:43;;;;;;;12.60;6.40;;;;;;;10.83;21.44;101399.94;4478562;32;34225;-78
2022/03/14 09:25:30;;;;;;;11.88;6.28;;;;;;;11.00;21.79;101412.31;4476831;32;34621;-79
2022/03/14 09:28:16;;;;;;;14.60;6.80;;;;;;;11.41;21.60;101403.31;4477530;32;35446;-78
2022/03/14 09:31:03;;;;;;;14.50;6.55;;;;;;;11.85;21.51;101402.78;4451359;32;35015;-78
2022/03/14 09:33:51;;;;;;;15.38;6.57;;;;;;;12.16;20.33;101398.09;4477942;32;35475;-78
2022/03/14 09:36:38;;;;;;;12.88;6.37;;;;;;;12.14;20.04;101392.84;4478329;32;36002;-78
2022/03/14 09:39:24;;;;;;;10.52;6.25;;;;;;;12.21;20.53;101394.50;4455348;32;36037;-78
2022/03/14 09:42:11;;;;;;;11.82;7.15;;;;;;;12.64;20.13;101411.41;4476736;31;34062;-77
2022/03/14 09:44:59;;;;;;;10.95;7.05;;;;;;;12.74;19.98;101416.84;4476961;31;35539;-78
2022/03/14 09:47:47;;;;;;;12.57;6.55;;;;;;;12.94;20.34;101407.66;4474474;32;34872;-77
2022/03/14 09:50:44;;;;;;;13.20;6.72;;;;;;;13.60;19.79;101406.41;4472846;32;34231;-78
2022/03/14 09:53:33;;;;;;;12.80;6.87;;;;;;;13.99;18.56;101389.81;4474492;32;33636;-77
2022/03/14 09:56:20;;;;;;;11.98;7.00;;;;;;;13.36;19.16;101401.66;4473502;32;34396;-77
2022/03/14 09:59:10;;;;;;;13.32;6.60;;;;;;;13.30;19.35;101402.81;4477504;32;34666;-78
2022/03/14 10:01:57;;;;;;;11.05;6.20;;;;;;;13.77;18.98;101404.06;4471213;32;34736;-78
2022/03/14 10:04:44;;;;;;;11.32;5.93;;;;;;;13.48;19.57;101399.34;4479940;31;33835;-78
2022/03/14 10:07:31;;;;;;;9.98;6.25;;;;;;;13.74;18.64;101407.41;4480266;32;34191;-78
2022/03/14 10:10:18;;;;;;;10.63;5.43;;;;;;;13.76;18.84;101402.44;4475179;32;35942;-78
2022/03/14 10:13:06;;;;;;;10.05;5.97;;;;;;;14.16;18.90;101394.88;4469969;32;34522;-78
2022/03/14 10:15:53;;;;;;;11.10;5.55;;;;;;;14.34;17.87;101390.53;4480945;32;34101;-78
2022/03/14 10:18:54;;;;;;;9.27;5.85;;;;;;;14.13;18.25;101390.75;4480368;32;34251;-79
2022/03/14 10:21:46;;;;;;;10.57;5.87;;;;;;;14.37;17.67;101384.41;4470158;32;35978;-78
2022/03/14 10:24:34;;;;;;;13.27;5.82;;;;;;;14.91;18.11;101376.84;4478823;32;34519;-77
2022/03/14 10:27:21;;;;;;;11.23;6.12;;;;;;;13.75;19.32;101395.28;4480761;32;34269;-77
2022/03/14 10:30:29;;;;;;;7.97;4.72;;;;;;;14.94;17.50;101385.38;4468931;32;34691;-78
2022/03/14 10:33:16;;;;;;;9.93;5.62;;;;;;;15.46;16.98;101379.91;4474381;32;34973;-79
2022/03/14 10:36:06;;;;;;;8.88;5.32;;;;;;;15.42;16.66;101387.13;4480544;32;34150;-79
2022/03/14 10:38:53;;;;;;;11.77;5.20;;;;;;;15.50;17.03;101384.50;4480124;32;34085;-80
2022/03/14 10:41:41;;;;;;;7.80;4.90;;;;;;;15.75;16.22;101382.47;4477871;32;35564;-79
2022/03/14 10:44:47;;;;;;;9.25;5.37;;;;;;;15.13;17.05;101396.41;4480622;32;34490;-79
2022/03/14 10:47:34;;;;;;;9.82;5.30;;;;;;;15.42;16.90;101389.87;4478654;32;36279;-80
2022/03/14 10:50:35;;;;;;;8.85;5.00;;;;;;;15.87;16.65;101393.03;4471864;32;33593;-79
2022/03/14 10:53:21;;;;;;;8.67;5.23;;;;;;;14.80;17.05;101393.56;4478650;32;34603;-79
2022/03/14 10:56:07;;;;;;;9.65;5.62;;;;;;;15.18;17.61;101390.81;4476728;32;34879;-78
2022/03/14 10:58:56;;;;;;;10.82;5.93;;;;;;;15.66;17.51;101381.50;4479190;32;34581;-78
2022/03/14 11:02:03;;;;;;;10.25;5.78;;;;;;;16.46;16.33;101382.22;4470599;32;33119;-79
2022/03/14 11:04:50;;;;;;;10.30;5.53;;;;;;;16.16;16.70;101376.97;4466849;32;34606;-79
2022/03/14 11:07:38;;;;;;;9.90;5.65;;;;;;;16.44;16.48;101388.06;4479241;32;35164;-79
2022/03/14 11:10:37;;;;;;;10.50;5.60;;;;;;;16.47;15.99;101378.31;4468587;32;34486;-78
2022/03/14 11:13:24;;;;;;;8.80;4.60;;;;;;;16.75;15.83;101379.13;4470654;32;34448;-77
2022/03/14 11:16:12;;;;;;;8.45;4.65;;;;;;;16.28;16.87;101375.66;4469173;32;35024;-77
2022/03/14 11:18:59;;;;;;;9.05;5.20;;;;;;;16.27;16.05;101371.25;4478816;31;35058;-78
2022/03/14 11:21:49;;;;;;;8.63;4.40;;;;;;;16.57;15.98;101365.09;4477908;32;35216;-78
2022/03/14 11:24:36;;;;;;;10.10;5.62;;;;;;;15.63;16.96;101363.56;4477546;32;33738;-77
2022/03/14 11:27:32;;;;;;;8.93;5.47;;;;;;;16.02;16.21;101372.56;4470235;31;34675;-79
2022/03/14 11:30:19;;;;;;;12.55;5.85;;;;;;;15.74;16.38;101367.84;4467837;32;34718;-80
2022/03/14 11:33:05;;;;;;;13.15;5.50;;;;;;;15.62;17.00;101364.69;4480102;32;34597;-80
2022/03/14 11:35:52;;;;;;;8.75;5.18;;;;;;;15.95;16.54;101357.22;4478736;32;34079;-79
2022/03/14 11:38:39;;;;;;;10.40;5.55;;;;;;;14.90;17.54;101365.00;4474568;32;35556;-78
2022/03/14 11:41:25;;;;;;;8.85;5.37;;;;;;;14.99;18.07;101351.34;4462220;31;34486;-78
2022/03/14 11:44:12;;;;;;;9.02;5.62;;;;;;;13.82;18.64;101346.16;4480207;31;34662;-77
2022/03/14 11:46:59;;;;;;;8.65;5.32;;;;;;;14.46;18.42;101346.81;4473036;32;34762;-77
2022/03/14 11:49:47;;;;;;;9.77;5.18;;;;;;;13.80;19.13;101342.06;4474023;32;34846;-77
2022/03/14 11:52:41;;;;;;;8.55;4.82;;;;;;;13.09;19.98;101355.31;4473201;32;34893;-78
2022/03/14 11:55:27;;;;;;;8.52;4.75;;;;;;;13.65;19.45;101349.34;4466183;32;34620;-77
2022/03/14 11:59:04;;;;;;;9.15;4.82;;;;;;;13.30;20.30;101349.69;4470645;32;33783;-78
2022/03/14 12:02:00;;;;;;;7.10;4.65;;;;;;;13.08;20.09;101352.84;4437727;32;34133;-78
2022/03/14 12:04:51;;;;;;;;;;;;;;;13.70;19.61;101354.00;4478955;32;35145;-79
2022/03/14 12:07:37;;;;;;;10.95;5.12;;;;;;;13.32;20.17;101350.19;4465832;32;35716;-78
2022/03/14 12:10:31;;;;;;;11.00;4.82;;;;;;;12.81;20.25;101345.87;4479868;32;35073;-78
2022/03/14 12:13:40;;;;;;;9.65;4.68;;;;;;;13.03;20.68;101353.69;4478646;32;34735;-79
2022/03/14 12:16:37;;;;;;;9.40;5.00;;;;;;;13.24;20.34;101341.44;4478589;31;35082;-77
2022/03/14 12:19:31;;;;;;;7.72;4.45;;;;;;;13.40;20.10;101346.81;4469058;32;35358;-77
2022/03/14 12:22:27;;;;;;;10.43;5.18;;;;;;;13.70;20.03;101343.00;4475456;32;34166;-78
2022/03/14 12:25:41;;;;;;;8.70;5.07;;;;;;;13.69;19.89;101339.41;4479123;32;35545;-78
2022/03/14 12:28:37;;;;;;;10.40;5.57;;;;;;;13.85;20.01;101340.06;4479124;32;34969;-79
2022/03/14 12:31:23;;;;;;;9.73;5.15;;;;;;;13.17;20.12;101332.66;4479365;32;33348;-78
2022/03/14 12:34:11;;;;;;;10.13;5.18;;;;;;;13.76;20.53;101330.81;4480121;32;33792;-78
2022/03/14 12:37:24;;;;;;;8.60;4.70;;;;;;;14.11;19.74;101323.25;4479391;32;34642;-79
2022/03/14 12:40:19;;;;;;;12.23;5.93;;;;;;;13.24;20.04;101326.84;4472634;32;35535;-78
2022/03/14 12:43:06;;;;;;;8.50;4.53;;;;;;;13.92;20.49;101334.22;4480233;32;35445;-79
2022/03/14 12:45:54;;;;;;;7.87;5.20;;;;;;;14.06;19.70;101334.31;4480981;32;33806;-78
2022/03/14 12:48:51;;;;;;;11.60;5.47;;;;;;;14.57;19.33;101336.47;4468982;32;33522;-78